createdAt,value
2022-08-07T00:00:45.863Z,14.70
2022-08-07T00:02:41.130Z,14.56
2022-08-07T00:03:47.339Z,14.91
2022-08-07T00:04:45.941Z,14.35
2022-08-07T00:05:46.366Z,14.09
2022-08-07T00:06:51.813Z,14.23
2022-08-07T00:07:45.869Z,14.90
2022-08-07T00:08:45.894Z,13.53
2022-08-07T00:09:59.255Z,14.23
2022-08-07T00:10:47.930Z,13.80
2022-08-07T00:11:53.988Z,13.71
2022-08-07T00:12:57.730Z,16.06
2022-08-07T00:13:45.909Z,14.53
2022-08-07T00:14:45.885Z,14.42
2022-08-07T00:15:46.676Z,14.15
2022-08-07T00:16:45.883Z,14.06
2022-08-07T00:17:45.901Z,13.69
2022-08-07T00:18:45.922Z,13.92
2022-08-07T00:20:01.461Z,14.54
2022-08-07T00:20:45.895Z,13.12
2022-08-07T00:21:56.593Z,14.75
2022-08-07T00:22:51.609Z,14.07
2022-08-07T00:23:45.904Z,14.64
2022-08-07T00:24:45.902Z,13.09
2022-08-07T00:25:59.017Z,14.37
2022-08-07T00:26:49.296Z,14.50
2022-08-07T00:27:52.358Z,14.75
2022-08-07T00:28:56.673Z,13.68
2022-08-07T00:29:45.947Z,14.00
2022-08-07T00:30:45.945Z,13.56
2022-08-07T00:31:45.948Z,13.95
2022-08-07T00:32:45.923Z,13.70
2022-08-07T00:33:47.376Z,14.52
2022-08-07T00:34:45.930Z,13.45
2022-08-07T00:35:49.631Z,13.83
2022-08-07T00:36:45.953Z,13.94
2022-08-07T00:37:47.889Z,13.63
2022-08-07T00:38:45.969Z,13.92
2022-08-07T00:39:54.251Z,12.60
2022-08-07T00:40:45.955Z,13.46
2022-08-07T00:41:53.819Z,12.89
2022-08-07T00:42:45.960Z,12.72
2022-08-07T00:43:59.639Z,12.88
2022-08-07T00:44:45.952Z,13.42
2022-08-07T00:45:46.497Z,12.79
2022-08-07T00:48:09.641Z,12.41
2022-08-07T00:48:49.974Z,13.43
2022-08-07T00:50:21.487Z,13.85
2022-08-07T00:50:51.080Z,12.97
2022-08-07T00:51:58.758Z,12.97
2022-08-07T00:52:47.310Z,14.20
2022-08-07T00:53:50.800Z,11.73
2022-08-07T00:56:45.994Z,14.28
2022-08-07T00:57:55.170Z,12.13
2022-08-07T00:58:46.940Z,12.17
2022-08-07T00:59:46.009Z,13.32
2022-08-07T01:00:53.729Z,12.74
2022-08-07T01:01:46.040Z,13.41
2022-08-07T01:02:46.012Z,12.93
2022-08-07T01:03:56.314Z,13.50
2022-08-07T01:04:46.020Z,11.86
2022-08-07T01:05:53.488Z,12.22
2022-08-07T01:06:46.016Z,13.62
2022-08-07T01:08:53.328Z,12.21
2022-08-07T01:10:05.692Z,11.67
2022-08-07T01:10:47.753Z,13.20
2022-08-07T01:12:26.538Z,12.36
2022-08-07T01:12:54.136Z,12.53
2022-08-07T01:13:55.547Z,12.09
2022-08-07T01:16:00.969Z,13.38
2022-08-07T01:16:47.391Z,13.01
2022-08-07T01:17:46.069Z,12.55
2022-08-07T01:18:46.090Z,12.82
2022-08-07T01:19:54.441Z,13.29
2022-08-07T01:20:58.442Z,13.79
2022-08-07T01:21:46.061Z,12.90
2022-08-07T01:22:46.652Z,12.58
2022-08-07T01:23:46.627Z,12.32
2022-08-07T01:24:46.089Z,12.52
2022-08-07T01:25:55.821Z,13.42
2022-08-07T01:26:47.903Z,12.80
2022-08-07T01:27:50.897Z,13.22
2022-08-07T01:28:48.188Z,12.81
2022-08-07T01:29:46.096Z,13.89
2022-08-07T01:30:46.098Z,13.88
2022-08-07T01:31:46.190Z,13.00
2022-08-07T01:32:46.089Z,13.31
2022-08-07T01:33:55.461Z,13.50
2022-08-07T01:34:47.406Z,12.29
2022-08-07T01:35:53.710Z,12.45
2022-08-07T01:36:52.775Z,12.94
2022-08-07T01:37:46.110Z,12.89
2022-08-07T01:38:46.095Z,12.99
2022-08-07T01:39:46.723Z,12.87
2022-08-07T01:40:46.111Z,12.57
2022-08-07T01:42:57.225Z,12.95
2022-08-07T01:43:46.107Z,11.61
2022-08-07T01:44:47.988Z,11.86
2022-08-07T01:45:46.673Z,11.84
2022-08-07T01:48:20.773Z,12.22
2022-08-07T01:48:46.685Z,12.41
2022-08-07T01:50:46.297Z,12.03
2022-08-07T01:52:01.498Z,13.02
2022-08-07T01:52:49.472Z,11.96
2022-08-07T01:54:09.478Z,11.68
2022-08-07T01:54:46.139Z,12.19
2022-08-07T01:55:46.132Z,12.12
2022-08-07T01:56:49.471Z,12.68
2022-08-07T01:58:06.377Z,13.23
2022-08-07T01:58:46.156Z,11.37
2022-08-07T01:59:46.195Z,11.87
2022-08-07T02:00:49.253Z,12.33
2022-08-07T02:01:59.851Z,12.39
2022-08-07T02:03:19.301Z,12.55
2022-08-07T02:03:50.291Z,12.74
2022-08-07T02:04:56.239Z,12.07
2022-08-07T02:05:53.708Z,12.14
2022-08-07T02:06:46.178Z,12.57
2022-08-07T02:07:50.670Z,12.45
2022-08-07T02:08:46.181Z,12.55
2022-08-07T02:10:54.887Z,11.67
2022-08-07T02:12:46.496Z,12.05
2022-08-07T02:14:00.678Z,11.79
2022-08-07T02:14:46.202Z,11.51
2022-08-07T02:15:46.213Z,13.09
2022-08-07T02:16:46.197Z,12.07
2022-08-07T02:17:49.230Z,12.31
2022-08-07T02:20:04.606Z,12.29
2022-08-07T02:21:56.235Z,11.36
2022-08-07T02:22:46.234Z,11.23
2022-08-07T02:24:46.235Z,12.35
2022-08-07T02:26:30.926Z,12.43
2022-08-07T02:26:46.228Z,11.88
2022-08-07T02:27:51.918Z,12.37
2022-08-07T02:28:46.240Z,11.67
2022-08-07T02:29:54.347Z,12.16
2022-08-07T02:30:46.255Z,12.32
2022-08-07T02:31:46.242Z,11.62
2022-08-07T02:33:03.999Z,12.32
2022-08-07T02:34:01.658Z,11.82
2022-08-07T02:34:51.330Z,11.59
2022-08-07T02:36:28.379Z,12.10
2022-08-07T02:36:46.263Z,11.53
2022-08-07T02:37:46.251Z,11.35
2022-08-07T02:40:12.314Z,12.45
2022-08-07T02:41:47.278Z,11.49
2022-08-07T02:43:47.746Z,12.27
2022-08-07T02:44:48.231Z,12.00
2022-08-07T02:45:58.635Z,11.27
2022-08-07T02:46:46.527Z,11.33
2022-08-07T02:47:49.143Z,12.17
2022-08-07T02:48:55.119Z,11.19
2022-08-07T02:49:56.452Z,12.37
2022-08-07T02:50:46.286Z,12.39
2022-08-07T02:52:48.661Z,12.11
2022-08-07T02:53:46.297Z,12.05
2022-08-07T02:54:46.305Z,12.69
2022-08-07T02:56:04.225Z,12.02
2022-08-07T02:56:46.315Z,13.34
2022-08-07T02:57:46.764Z,11.43
2022-08-07T02:58:47.229Z,12.46
2022-08-07T02:59:55.039Z,12.28
2022-08-07T03:00:47.371Z,12.13
2022-08-07T03:01:47.377Z,12.23
2022-08-07T03:02:54.509Z,11.54
2022-08-07T03:04:46.457Z,12.70
2022-08-07T03:05:46.346Z,12.55
2022-08-07T03:06:48.132Z,11.92
2022-08-07T03:08:06.809Z,12.29
2022-08-07T03:08:46.337Z,12.86
2022-08-07T03:09:50.626Z,11.90
2022-08-07T03:10:47.221Z,11.56
2022-08-07T03:11:52.273Z,12.31
2022-08-07T03:12:46.352Z,12.64
2022-08-07T03:13:49.728Z,12.24
2022-08-07T03:14:52.013Z,12.70
2022-08-07T03:15:47.887Z,12.74
2022-08-07T03:16:46.355Z,12.29
2022-08-07T03:17:53.774Z,10.81
2022-08-07T03:18:46.377Z,12.45
2022-08-07T03:19:54.457Z,11.76
2022-08-07T03:20:46.420Z,12.20
2022-08-07T03:21:50.747Z,12.27
2022-08-07T03:22:50.242Z,12.03
2022-08-07T03:24:18.160Z,12.03
2022-08-07T03:24:46.399Z,12.21
2022-08-07T03:25:46.373Z,10.79
2022-08-07T03:26:57.830Z,12.51
2022-08-07T03:28:08.812Z,11.77
2022-08-07T03:28:46.401Z,11.94
2022-08-07T03:29:51.010Z,11.71
2022-08-07T03:30:46.402Z,12.02
2022-08-07T03:31:49.881Z,11.47
2022-08-07T03:32:49.064Z,11.95
2022-08-07T03:33:46.406Z,11.90
2022-08-07T03:35:50.157Z,11.62
2022-08-07T03:36:46.405Z,12.17
2022-08-07T03:37:53.875Z,12.66
2022-08-07T03:39:59.339Z,11.86
2022-08-07T03:40:46.479Z,12.14
2022-08-07T03:41:47.760Z,12.10
2022-08-07T03:42:46.424Z,11.36
2022-08-07T03:43:57.377Z,12.02
2022-08-07T03:44:53.106Z,12.47
2022-08-07T03:45:48.455Z,11.83
2022-08-07T03:47:13.732Z,11.49
2022-08-07T03:47:51.233Z,12.16
2022-08-07T03:49:48.062Z,12.21
2022-08-07T03:50:56.009Z,11.28
2022-08-07T03:51:47.650Z,12.38
2022-08-07T03:54:01.859Z,11.92
2022-08-07T03:55:58.045Z,12.67
2022-08-07T03:57:03.489Z,12.09
2022-08-07T03:58:33.518Z,12.02
2022-08-07T03:59:08.056Z,12.95
2022-08-07T04:00:02.601Z,12.79
2022-08-07T04:00:53.998Z,12.20
2022-08-07T04:01:46.637Z,12.00
2022-08-07T04:02:47.291Z,13.05
2022-08-07T04:03:53.205Z,12.21
2022-08-07T04:04:46.490Z,11.83
2022-08-07T04:06:46.499Z,12.29
2022-08-07T04:07:46.772Z,12.16
2022-08-07T04:08:46.479Z,12.53
2022-08-07T04:09:50.602Z,13.55
2022-08-07T04:10:54.200Z,11.78
2022-08-07T04:12:27.890Z,11.85
2022-08-07T04:12:46.504Z,12.95
2022-08-07T04:14:10.681Z,13.25
2022-08-07T04:14:47.753Z,13.53
2022-08-07T04:15:49.014Z,12.68
2022-08-07T04:16:58.710Z,12.98
2022-08-07T04:18:56.303Z,12.52
2022-08-07T04:18:59.464Z,12.63
2022-08-07T04:20:54.598Z,13.43
2022-08-07T04:21:58.710Z,13.49
2022-08-07T04:22:53.540Z,12.90
2022-08-07T04:24:05.964Z,13.29
2022-08-07T04:24:46.555Z,13.50
2022-08-07T04:26:46.540Z,12.98
2022-08-07T04:27:59.253Z,12.15
2022-08-07T04:28:46.549Z,13.21
2022-08-07T04:30:55.620Z,13.17
2022-08-07T04:32:09.809Z,12.99
2022-08-07T04:32:47.775Z,13.69
2022-08-07T04:33:46.568Z,13.75
2022-08-07T04:34:46.556Z,12.94
2022-08-07T04:35:50.536Z,13.30
2022-08-07T04:36:48.747Z,13.05
2022-08-07T04:38:02.934Z,12.68
2022-08-07T04:38:46.576Z,12.95
2022-08-07T04:39:49.790Z,13.78
2022-08-07T04:40:52.159Z,13.14
2022-08-07T04:41:48.295Z,12.33
2022-08-07T04:42:46.563Z,13.42
2022-08-07T04:44:12.977Z,13.48
2022-08-07T04:44:54.382Z,12.08
2022-08-07T04:46:00.986Z,12.71
2022-08-07T04:46:59.255Z,11.96
2022-08-07T04:48:00.526Z,13.70
2022-08-07T04:48:46.620Z,12.98
2022-08-07T04:49:47.449Z,12.97
2022-08-07T04:50:52.925Z,13.57
2022-08-07T04:51:46.588Z,12.67
2022-08-07T04:52:51.750Z,11.44
2022-08-07T04:54:05.792Z,12.50
2022-08-07T04:54:50.421Z,13.19
2022-08-07T04:58:09.810Z,13.30
2022-08-07T04:58:14.159Z,13.83
2022-08-07T04:58:16.618Z,12.60
2022-08-07T04:59:18.581Z,13.36
2022-08-07T05:00:46.676Z,13.39
2022-08-07T05:01:46.627Z,12.57
2022-08-07T05:02:50.919Z,14.37
2022-08-07T05:04:06.371Z,14.26
2022-08-07T05:04:49.996Z,13.47
2022-08-07T05:05:53.255Z,14.31
2022-08-07T05:06:51.783Z,13.91
2022-08-07T05:07:48.667Z,13.82
2022-08-07T05:09:00.894Z,13.90
2022-08-07T05:09:47.038Z,13.92
2022-08-07T05:10:46.650Z,13.27
2022-08-07T05:11:57.422Z,13.48
2022-08-07T05:12:52.823Z,14.86
2022-08-07T05:14:52.900Z,14.45
2022-08-07T05:14:59.247Z,13.52
2022-08-07T05:15:46.664Z,14.09
2022-08-07T05:16:46.659Z,13.92
2022-08-07T05:17:52.503Z,13.46
2022-08-07T05:18:46.671Z,13.40
2022-08-07T05:19:46.679Z,14.62
2022-08-07T05:20:46.664Z,13.32
2022-08-07T05:22:46.910Z,14.69
2022-08-07T05:24:46.684Z,14.05
2022-08-07T05:26:10.954Z,14.11
2022-08-07T05:28:02.702Z,14.10
2022-08-07T05:28:50.130Z,13.87
2022-08-07T05:29:52.186Z,13.37
2022-08-07T05:30:47.123Z,13.91
2022-08-07T05:31:47.436Z,14.71
2022-08-07T05:32:46.844Z,15.12
2022-08-07T05:34:01.126Z,15.53
2022-08-07T05:34:46.718Z,15.47
2022-08-07T05:35:46.704Z,14.19
2022-08-07T05:36:48.998Z,14.50
2022-08-07T05:37:46.849Z,14.19
2022-08-07T05:39:01.014Z,14.36
2022-08-07T05:40:14.034Z,14.04
2022-08-07T05:40:51.461Z,15.38
2022-08-07T05:42:00.484Z,14.02
2022-08-07T05:44:07.931Z,14.27
2022-08-07T05:45:04.204Z,14.94
2022-08-07T05:45:48.356Z,13.76
2022-08-07T05:46:46.748Z,14.84
2022-08-07T05:48:01.448Z,13.33
2022-08-07T05:48:59.581Z,14.53
2022-08-07T05:49:46.751Z,13.79
2022-08-07T05:50:46.750Z,14.66
2022-08-07T05:51:47.060Z,14.02
2022-08-07T05:52:46.847Z,14.26
2022-08-07T05:54:13.221Z,14.61
2022-08-07T05:54:55.890Z,15.20
2022-08-07T05:56:03.273Z,14.21
2022-08-07T05:56:46.750Z,15.11
2022-08-07T05:58:52.423Z,14.28
2022-08-07T05:59:57.866Z,14.51
2022-08-07T06:00:51.037Z,14.91
2022-08-07T06:01:46.795Z,14.27
2022-08-07T06:02:46.993Z,13.38
2022-08-07T06:03:53.726Z,14.49
2022-08-07T06:05:49.052Z,14.48
2022-08-07T06:06:47.714Z,14.96
2022-08-07T06:08:13.681Z,13.33
2022-08-07T06:08:46.900Z,14.54
2022-08-07T06:10:05.182Z,13.69
2022-08-07T06:10:46.801Z,14.26
2022-08-07T06:11:46.802Z,14.73
2022-08-07T06:12:46.850Z,14.80
2022-08-07T06:14:11.700Z,13.25
2022-08-07T06:14:49.687Z,14.44
2022-08-07T06:16:55.915Z,13.04
2022-08-07T06:17:53.383Z,14.39
2022-08-07T06:18:54.228Z,13.32
2022-08-07T06:19:52.271Z,13.47
2022-08-07T06:20:50.462Z,13.36
2022-08-07T06:22:16.022Z,13.06
2022-08-07T06:23:02.548Z,13.02
2022-08-07T06:24:38.180Z,13.47
2022-08-07T06:25:54.372Z,12.24
2022-08-07T06:26:46.843Z,14.15
2022-08-07T06:28:01.045Z,14.58
2022-08-07T06:29:48.249Z,13.60
2022-08-07T06:30:50.815Z,14.01
2022-08-07T06:31:49.785Z,13.33
2022-08-07T06:32:46.900Z,13.07
2022-08-07T06:33:46.843Z,13.55
2022-08-07T06:34:46.886Z,14.22
2022-08-07T06:36:06.088Z,13.24
2022-08-07T06:36:46.889Z,13.59
2022-08-07T06:37:47.087Z,12.93
2022-08-07T06:38:59.322Z,12.61
2022-08-07T06:40:46.989Z,14.78
2022-08-07T06:42:02.689Z,13.97
2022-08-07T06:42:46.997Z,13.86
2022-08-07T06:43:59.274Z,13.58
2022-08-07T06:46:53.576Z,13.92
2022-08-07T06:47:57.294Z,13.29
2022-08-07T06:48:46.923Z,13.56
2022-08-07T06:49:51.453Z,13.52
2022-08-07T06:50:47.724Z,12.96
2022-08-07T06:51:49.726Z,12.55
2022-08-07T06:55:33.209Z,13.30
2022-08-07T06:55:53.934Z,14.20
2022-08-07T06:56:49.667Z,12.72
2022-08-07T06:57:50.988Z,13.42
2022-08-07T07:00:12.603Z,13.08
2022-08-07T07:00:14.269Z,12.75
2022-08-07T07:00:46.929Z,12.82
2022-08-07T07:01:48.737Z,12.74
2022-08-07T07:02:48.630Z,13.36
2022-08-07T07:04:55.109Z,13.55
2022-08-07T07:06:02.740Z,13.33
2022-08-07T07:06:57.647Z,13.81
2022-08-07T07:07:59.337Z,12.79
2022-08-07T07:08:47.089Z,13.14
2022-08-07T07:09:46.948Z,13.01
2022-08-07T07:10:47.530Z,12.62
2022-08-07T07:12:08.441Z,13.04
2022-08-07T07:12:48.812Z,14.02
2022-08-07T07:13:57.482Z,14.27
2022-08-07T07:14:46.987Z,13.81
2022-08-07T07:15:51.502Z,13.57
2022-08-07T07:16:51.104Z,13.61
2022-08-07T07:17:50.506Z,13.79
2022-08-07T07:18:48.640Z,12.92
2022-08-07T07:19:57.263Z,12.66
2022-08-07T07:20:46.979Z,12.41
2022-08-07T07:22:11.574Z,13.40
2022-08-07T07:24:05.089Z,13.50
2022-08-07T07:24:10.287Z,13.09
2022-08-07T07:26:35.840Z,13.56
2022-08-07T07:26:51.761Z,13.34
2022-08-07T07:29:38.954Z,13.37
2022-08-07T07:30:08.852Z,13.45
2022-08-07T07:30:51.843Z,13.62
2022-08-07T07:31:47.075Z,13.76
2022-08-07T07:33:54.942Z,12.71
2022-08-07T07:36:03.895Z,12.85
2022-08-07T07:36:47.963Z,12.41
2022-08-07T07:37:49.907Z,13.36
2022-08-07T07:39:54.754Z,12.94
2022-08-07T07:40:47.035Z,12.55
2022-08-07T07:42:01.972Z,11.48
2022-08-07T07:42:51.102Z,12.97
2022-08-07T07:44:14.261Z,12.19
2022-08-07T07:44:49.419Z,13.09
2022-08-07T07:46:40.088Z,12.45
2022-08-07T07:46:56.072Z,13.13
2022-08-07T07:47:52.479Z,11.87
2022-08-07T07:48:47.050Z,13.40
2022-08-07T07:50:33.221Z,13.35
2022-08-07T07:50:47.036Z,12.97
2022-08-07T07:51:58.044Z,13.12
2022-08-07T07:52:47.277Z,12.89
2022-08-07T07:53:52.498Z,12.47
2022-08-07T07:54:51.315Z,12.01
2022-08-07T07:55:57.975Z,13.31
2022-08-07T07:56:47.078Z,12.82
2022-08-07T07:57:53.800Z,11.91
2022-08-07T07:58:47.068Z,11.44
2022-08-07T07:59:52.828Z,12.54
2022-08-07T08:00:53.550Z,11.17
2022-08-07T08:02:02.468Z,12.39
2022-08-07T08:03:05.372Z,11.73
2022-08-07T08:04:09.943Z,13.03
2022-08-07T08:04:47.145Z,12.29
2022-08-07T08:05:54.905Z,11.32
2022-08-07T08:06:52.109Z,12.28
2022-08-07T08:08:00.805Z,12.02
2022-08-07T08:08:48.216Z,11.90
2022-08-07T08:09:52.114Z,11.20
2022-08-07T08:10:47.957Z,12.47
2022-08-07T08:11:59.621Z,11.76
2022-08-07T08:12:59.099Z,12.84
2022-08-07T08:13:54.028Z,11.23
2022-08-07T08:14:47.123Z,12.83
2022-08-07T08:15:59.057Z,11.91
2022-08-07T08:16:50.454Z,10.78
2022-08-07T08:17:57.180Z,11.91
2022-08-07T08:18:50.514Z,13.13
2022-08-07T08:20:18.613Z,12.99
2022-08-07T08:20:47.945Z,12.37
2022-08-07T08:21:56.042Z,11.50
2022-08-07T08:22:55.782Z,12.50
2022-08-07T08:23:47.144Z,11.95
2022-08-07T08:24:47.147Z,11.55
2022-08-07T08:25:49.028Z,10.67
2022-08-07T08:26:50.356Z,10.61
2022-08-07T08:27:56.714Z,11.18
2022-08-07T08:28:47.144Z,11.48
2022-08-07T08:29:55.486Z,11.65
2022-08-07T08:30:50.944Z,11.83
2022-08-07T08:32:17.551Z,11.97
2022-08-07T08:32:48.820Z,11.07
2022-08-07T08:33:50.205Z,11.86
2022-08-07T08:34:47.166Z,11.06
2022-08-07T08:35:49.855Z,11.34
2022-08-07T08:38:00.934Z,11.72
2022-08-07T08:38:47.176Z,11.03
2022-08-07T08:39:55.247Z,11.37
2022-08-07T08:40:47.435Z,11.17
2022-08-07T08:41:58.825Z,11.25
2022-08-07T08:42:47.172Z,10.74
2022-08-07T08:43:55.842Z,11.30
2022-08-07T08:44:52.220Z,12.94
2022-08-07T08:46:47.194Z,11.97
2022-08-07T08:47:55.169Z,10.79
2022-08-07T08:48:47.196Z,12.25
2022-08-07T08:50:02.495Z,10.10
2022-08-07T08:50:47.193Z,11.20
2022-08-07T08:51:49.634Z,11.11
2022-08-07T08:52:53.633Z,10.16
2022-08-07T08:53:47.215Z,11.04
2022-08-07T08:54:47.212Z,10.48
2022-08-07T08:55:54.934Z,11.29
2022-08-07T08:57:47.245Z,11.60
2022-08-07T08:58:47.231Z,11.52
2022-08-07T09:01:49.451Z,10.88
2022-08-07T09:02:52.265Z,10.97
2022-08-07T09:03:49.877Z,11.18
2022-08-07T09:04:47.247Z,10.19
2022-08-07T09:05:47.237Z,11.95
2022-08-07T09:06:48.023Z,12.46
2022-08-07T09:07:57.667Z,11.77
2022-08-07T09:08:47.262Z,12.64
2022-08-07T09:09:47.514Z,12.12
2022-08-07T09:10:47.263Z,11.80
2022-08-07T09:11:53.222Z,11.23
2022-08-07T09:12:53.461Z,11.90
2022-08-07T09:13:47.276Z,11.55
2022-08-07T09:14:50.654Z,12.59
2022-08-07T09:16:21.957Z,10.72
2022-08-07T09:16:47.620Z,12.35
2022-08-07T09:18:07.232Z,11.56
2022-08-07T09:19:53.622Z,10.77
2022-08-07T09:20:57.895Z,11.22
2022-08-07T09:22:10.306Z,9.88
2022-08-07T09:24:32.198Z,10.01
2022-08-07T09:24:32.306Z,10.49
2022-08-07T09:24:59.112Z,9.16
2022-08-07T09:25:47.327Z,10.04
2022-08-07T09:26:47.957Z,10.57
2022-08-07T09:27:54.697Z,10.33
2022-08-07T09:30:05.813Z,10.18
2022-08-07T09:30:06.492Z,11.30
2022-08-07T09:30:49.715Z,10.74
2022-08-07T09:31:49.334Z,10.95
2022-08-07T09:32:47.336Z,10.69
2022-08-07T09:33:57.514Z,10.37
2022-08-07T09:34:54.023Z,11.19
2022-08-07T09:36:04.507Z,10.51
2022-08-07T09:36:49.900Z,10.61
2022-08-07T09:37:48.547Z,9.71
2022-08-07T09:38:53.433Z,10.97
2022-08-07T09:39:55.123Z,10.33
2022-08-07T09:40:47.324Z,10.31
2022-08-07T09:41:59.078Z,10.71
2022-08-07T09:42:47.364Z,10.68
2022-08-07T09:44:05.631Z,9.73
2022-08-07T09:47:23.826Z,10.50
2022-08-07T09:47:24.038Z,10.34
2022-08-07T09:47:51.766Z,10.45
2022-08-07T09:47:59.451Z,10.24
2022-08-07T09:50:02.400Z,9.72
2022-08-07T09:50:02.402Z,9.76
2022-08-07T09:50:47.359Z,10.14
2022-08-07T09:52:16.587Z,10.53
2022-08-07T09:52:51.669Z,10.80
2022-08-07T09:53:55.140Z,9.95
2022-08-07T09:54:47.367Z,11.67
2022-08-07T09:56:03.273Z,9.21
2022-08-07T09:56:47.397Z,9.11
2022-08-07T09:57:47.460Z,8.82
2022-08-07T09:58:48.660Z,9.18
2022-08-07T10:00:00.733Z,8.43
2022-08-07T10:00:47.383Z,10.07
2022-08-07T10:01:51.501Z,9.83
2022-08-07T10:04:04.704Z,10.55
2022-08-07T10:04:52.822Z,9.39
2022-08-07T10:06:00.159Z,9.39
2022-08-07T10:06:49.230Z,9.58
2022-08-07T10:07:53.160Z,9.13
2022-08-07T10:08:49.590Z,9.66
2022-08-07T10:10:00.179Z,8.04
2022-08-07T10:12:00.032Z,9.00
2022-08-07T10:12:53.115Z,10.47
2022-08-07T10:14:00.280Z,9.08
2022-08-07T10:14:55.176Z,8.97
2022-08-07T10:15:47.436Z,10.01
2022-08-07T10:16:47.430Z,7.99
2022-08-07T10:18:00.976Z,8.97
2022-08-07T10:18:47.476Z,9.44
2022-08-07T10:19:47.598Z,9.42
2022-08-07T10:20:47.432Z,9.14
2022-08-07T10:22:12.136Z,8.97
2022-08-07T10:22:47.449Z,8.50
2022-08-07T10:24:47.453Z,8.86
2022-08-07T10:25:47.450Z,9.24
2022-08-07T10:26:53.066Z,8.85
2022-08-07T10:27:51.101Z,9.04
2022-08-07T10:28:49.441Z,9.11
2022-08-07T10:29:52.053Z,9.14
2022-08-07T10:30:47.470Z,8.36
2022-08-07T10:31:47.480Z,9.29
2022-08-07T10:32:53.051Z,10.02
2022-08-07T10:34:04.985Z,9.10
2022-08-07T10:34:47.484Z,9.13
2022-08-07T10:36:47.558Z,8.56
2022-08-07T10:38:00.248Z,8.73
2022-08-07T10:38:48.942Z,9.23
2022-08-07T10:40:03.363Z,9.39
2022-08-07T10:41:56.797Z,8.49
2022-08-07T10:42:47.511Z,8.35
2022-08-07T10:43:47.514Z,8.46
2022-08-07T10:44:47.509Z,9.40
2022-08-07T10:45:57.318Z,8.03
2022-08-07T10:46:47.517Z,9.03
2022-08-07T10:47:51.373Z,9.11
2022-08-07T10:48:47.504Z,8.42
2022-08-07T10:49:50.907Z,9.09
2022-08-07T10:50:50.277Z,9.05
2022-08-07T10:52:01.926Z,9.18
2022-08-07T10:52:51.213Z,9.33
2022-08-07T10:53:47.547Z,9.28
2022-08-07T10:54:55.146Z,9.03
2022-08-07T10:55:47.514Z,8.93
2022-08-07T10:56:47.516Z,8.96
2022-08-07T10:57:56.012Z,8.82
2022-08-07T10:58:47.587Z,9.02
2022-08-07T10:59:47.729Z,8.35
2022-08-07T11:00:50.377Z,9.89
2022-08-07T11:01:51.136Z,9.96
2022-08-07T11:02:49.117Z,16.13
2022-08-07T11:03:55.245Z,31.03
2022-08-07T11:04:47.546Z,23.84
2022-08-07T11:05:49.198Z,22.73
2022-08-07T11:06:47.573Z,18.59
2022-08-07T11:08:00.544Z,22.14
2022-08-07T11:08:47.547Z,16.41
2022-08-07T11:10:08.576Z,17.31
2022-08-07T11:10:55.494Z,12.82
2022-08-07T11:11:51.836Z,12.09
2022-08-07T11:12:49.297Z,9.75
2022-08-07T11:14:43.502Z,9.58
2022-08-07T11:15:00.181Z,10.92
2022-08-07T11:15:54.248Z,9.92
2022-08-07T11:16:51.301Z,8.12
2022-08-07T11:17:47.946Z,8.57
2022-08-07T11:18:50.941Z,8.74
2022-08-07T11:19:47.575Z,9.09
2022-08-07T11:20:47.600Z,9.38
2022-08-07T11:21:47.590Z,8.69
2022-08-07T11:22:47.636Z,8.84
2022-08-07T11:23:48.549Z,9.63
2022-08-07T11:24:47.609Z,9.23
2022-08-07T11:25:50.144Z,9.26
2022-08-07T11:26:48.178Z,9.20
2022-08-07T11:28:55.704Z,9.14
2022-08-07T11:30:10.019Z,8.91
2022-08-07T11:30:47.638Z,8.20
2022-08-07T11:31:47.625Z,7.41
2022-08-07T11:32:47.628Z,8.14
2022-08-07T11:33:59.189Z,7.90
2022-08-07T11:34:47.632Z,7.00
2022-08-07T11:35:59.153Z,7.89
2022-08-07T11:36:47.648Z,8.40
2022-08-07T11:37:57.897Z,7.30
2022-08-07T11:38:50.581Z,7.75
2022-08-07T11:40:01.645Z,8.11
2022-08-07T11:40:49.716Z,8.20
2022-08-07T11:42:01.343Z,7.44
2022-08-07T11:42:47.677Z,8.36
2022-08-07T11:44:11.152Z,7.34
2022-08-07T11:44:52.405Z,7.40
2022-08-07T11:45:49.895Z,7.51
2022-08-07T11:47:56.632Z,7.34
2022-08-07T11:49:28.686Z,8.65
2022-08-07T11:50:25.326Z,7.47
2022-08-07T11:50:57.217Z,7.75
2022-08-07T11:51:47.661Z,7.48
2022-08-07T11:52:47.679Z,7.33
2022-08-07T11:54:00.685Z,6.41
2022-08-07T11:54:54.967Z,6.84
2022-08-07T11:56:13.944Z,7.34
2022-08-07T11:56:52.270Z,7.70
2022-08-07T11:58:00.849Z,6.67
2022-08-07T11:58:49.630Z,7.45
2022-08-07T12:00:11.708Z,7.17
2022-08-07T12:00:48.885Z,6.77
2022-08-07T12:02:00.094Z,6.97
2022-08-07T12:02:52.094Z,6.77
2022-08-07T12:03:47.762Z,6.93
2022-08-07T12:04:47.714Z,7.00
2022-08-07T12:05:49.707Z,6.64
2022-08-07T12:06:51.648Z,6.90
2022-08-07T12:07:53.540Z,7.00
2022-08-07T12:08:47.741Z,7.90
2022-08-07T12:09:47.742Z,8.20
2022-08-07T12:10:47.728Z,7.70
2022-08-07T12:12:10.470Z,6.36
2022-08-07T12:12:47.735Z,7.52
2022-08-07T12:13:47.989Z,7.67
2022-08-07T12:14:51.469Z,6.98
2022-08-07T12:16:06.949Z,6.96
2022-08-07T12:16:47.763Z,6.91
2022-08-07T12:17:59.377Z,7.10
2022-08-07T12:18:47.757Z,5.92
2022-08-07T12:19:56.372Z,6.37
2022-08-07T12:20:49.113Z,7.66
2022-08-07T12:21:55.912Z,6.52
2022-08-07T12:22:56.290Z,6.57
2022-08-07T12:24:06.066Z,6.40
2022-08-07T12:24:52.399Z,6.56
2022-08-07T12:26:05.725Z,7.14
2022-08-07T12:26:49.345Z,6.17
2022-08-07T12:28:09.925Z,7.25
2022-08-07T12:28:49.743Z,5.87
2022-08-07T12:29:47.766Z,6.31
2022-08-07T12:30:53.263Z,6.16
2022-08-07T12:31:53.340Z,6.16
2022-08-07T12:32:49.104Z,6.51
2022-08-07T12:33:55.875Z,6.65
2022-08-07T12:34:49.460Z,6.78
2022-08-07T12:35:48.210Z,6.01
2022-08-07T12:36:50.021Z,6.65
2022-08-07T12:38:09.739Z,6.36
2022-08-07T12:38:57.613Z,6.52
2022-08-07T12:39:50.598Z,6.27
2022-08-07T12:40:48.809Z,6.78
2022-08-07T12:41:49.907Z,6.35
2022-08-07T12:42:54.965Z,6.91
2022-08-07T12:44:04.419Z,6.99
2022-08-07T12:44:47.806Z,6.68
2022-08-07T12:45:50.260Z,6.58
2022-08-07T12:46:47.811Z,6.81
2022-08-07T12:47:49.242Z,6.30
2022-08-07T12:48:53.063Z,6.24
2022-08-07T12:49:51.579Z,6.67
2022-08-07T12:50:49.188Z,6.03
2022-08-07T12:51:52.704Z,6.50
2022-08-07T12:52:47.845Z,6.12
2022-08-07T12:54:02.726Z,6.55
2022-08-07T12:54:54.897Z,6.36
2022-08-07T12:56:02.873Z,5.77
2022-08-07T12:56:50.845Z,5.96
2022-08-07T12:58:01.007Z,6.14
2022-08-07T12:58:56.983Z,5.43
2022-08-07T12:59:54.299Z,5.23
2022-08-07T13:00:50.229Z,5.89
2022-08-07T13:01:47.903Z,4.96
2022-08-07T13:02:49.501Z,5.99
2022-08-07T13:04:00.637Z,5.09
2022-08-07T13:04:57.716Z,5.40
2022-08-07T13:06:04.642Z,5.65
2022-08-07T13:07:00.214Z,5.27
2022-08-07T13:08:12.109Z,5.44
2022-08-07T13:08:47.875Z,5.78
2022-08-07T13:10:21.959Z,5.26
2022-08-07T13:10:52.017Z,5.09
2022-08-07T13:12:03.126Z,5.84
2022-08-07T13:12:47.869Z,6.08
2022-08-07T13:13:50.074Z,5.63
2022-08-07T13:14:51.238Z,5.71
2022-08-07T13:15:47.889Z,5.77
2022-08-07T13:16:50.945Z,5.71
2022-08-07T13:18:49.028Z,5.41
2022-08-07T13:19:51.441Z,6.31
2022-08-07T13:20:51.066Z,5.39
2022-08-07T13:21:51.237Z,6.03
2022-08-07T13:22:52.562Z,5.43
2022-08-07T13:24:01.849Z,5.77
2022-08-07T13:24:53.940Z,5.39
2022-08-07T13:25:50.766Z,5.80
2022-08-07T13:26:47.925Z,5.84
2022-08-07T13:28:12.358Z,5.54
2022-08-07T13:28:47.934Z,5.83
2022-08-07T13:29:48.122Z,5.44
2022-08-07T13:30:52.220Z,5.52
2022-08-07T13:31:55.263Z,5.09
2022-08-07T13:32:47.993Z,5.53
2022-08-07T13:34:33.811Z,5.25
2022-08-07T13:34:48.618Z,5.34
2022-08-07T13:36:00.910Z,4.92
2022-08-07T13:36:47.942Z,4.89
2022-08-07T13:37:58.681Z,5.72
2022-08-07T13:40:33.353Z,5.49
2022-08-07T13:40:48.023Z,5.56
2022-08-07T13:41:47.982Z,5.06
2022-08-07T13:42:47.970Z,5.48
2022-08-07T13:43:52.795Z,4.91
2022-08-07T13:45:11.610Z,5.03
2022-08-07T13:46:12.830Z,5.15
2022-08-07T13:46:49.290Z,5.03
2022-08-07T13:48:06.132Z,5.56
2022-08-07T13:48:58.761Z,4.01
2022-08-07T13:50:35.897Z,5.33
2022-08-07T13:51:00.133Z,4.65
2022-08-07T13:52:22.783Z,4.80
2022-08-07T13:52:47.994Z,4.79
2022-08-07T13:53:59.542Z,5.02
2022-08-07T13:54:49.076Z,4.79
2022-08-07T13:55:54.644Z,4.50
2022-08-07T13:56:55.575Z,4.64
2022-08-07T13:57:51.609Z,4.95
2022-08-07T13:59:48.019Z,4.62
2022-08-07T14:00:54.095Z,4.89
2022-08-07T14:01:51.128Z,4.88
2022-08-07T14:02:51.083Z,4.58
2022-08-07T14:04:05.289Z,4.41
2022-08-07T14:04:50.354Z,4.16
2022-08-07T14:05:49.356Z,4.54